createdAt,value
2023-02-16T00:00:24.138Z,8.10
2023-02-16T00:02:50.942Z,8.10
2023-02-16T00:05:27.930Z,8.10
2023-02-16T00:07:56.410Z,8.10
2023-02-16T00:10:24.207Z,8.10
2023-02-16T00:13:12.469Z,8.00
2023-02-16T00:15:40.197Z,7.90
2023-02-16T00:18:17.852Z,7.90
2023-02-16T00:20:44.903Z,7.80
2023-02-16T00:23:13.027Z,7.70
2023-02-16T00:25:40.120Z,7.70
2023-02-16T00:28:14.606Z,7.60
2023-02-16T00:30:41.618Z,7.60
2023-02-16T00:33:20.575Z,7.60
2023-02-16T00:35:47.963Z,7.50
2023-02-16T00:38:15.086Z,7.50
2023-02-16T00:40:43.074Z,7.50
2023-02-16T00:43:24.045Z,7.40
2023-02-16T00:45:51.233Z,7.30
2023-02-16T00:48:18.079Z,7.30
2023-02-16T00:50:44.783Z,7.20
2023-02-16T00:53:11.802Z,7.30
2023-02-16T00:55:40.622Z,7.30
2023-02-16T00:58:25.461Z,7.30
2023-02-16T01:01:18.758Z,7.30
2023-02-16T01:03:46.943Z,7.30
2023-02-16T01:06:33.734Z,7.30
2023-02-16T01:09:31.949Z,7.30
2023-02-16T01:12:01.205Z,7.20
2023-02-16T01:14:30.744Z,7.20
2023-02-16T01:17:01.455Z,7.10
2023-02-16T01:19:28.351Z,7.10
2023-02-16T01:21:56.113Z,7.00
2023-02-16T01:24:22.847Z,6.90
2023-02-16T01:26:51.972Z,6.90
2023-02-16T01:29:20.924Z,6.70
2023-02-16T01:31:48.419Z,6.70
2023-02-16T01:34:15.190Z,6.70
2023-02-16T01:36:48.298Z,6.60
2023-02-16T01:39:19.987Z,6.60
2023-02-16T01:42:01.946Z,6.50
2023-02-16T01:44:51.048Z,6.60
2023-02-16T01:47:46.716Z,6.60
2023-02-16T01:50:28.917Z,6.70
2023-02-16T01:53:00.344Z,6.60
2023-02-16T01:55:35.463Z,6.70
2023-02-16T01:58:32.699Z,6.70
2023-02-16T02:00:59.736Z,6.80
2023-02-16T02:03:48.262Z,6.80
2023-02-16T02:06:22.392Z,6.80
2023-02-16T02:08:54.092Z,6.70
2023-02-16T02:11:28.669Z,6.70
2023-02-16T02:14:07.636Z,6.80
2023-02-16T02:16:34.445Z,6.80
2023-02-16T02:19:01.429Z,6.80
2023-02-16T02:22:18.863Z,6.70
2023-02-16T02:25:10.658Z,6.70
2023-02-16T02:27:47.214Z,6.70
2023-02-16T02:30:27.832Z,6.70
2023-02-16T02:33:18.485Z,6.80
2023-02-16T02:36:00.719Z,6.80
2023-02-16T02:38:57.183Z,6.80
2023-02-16T02:41:45.646Z,6.70
2023-02-16T02:44:17.755Z,6.60
2023-02-16T02:46:45.260Z,6.60
2023-02-16T02:49:11.963Z,6.50
2023-02-16T02:51:40.565Z,6.50
2023-02-16T02:54:30.153Z,6.60
2023-02-16T02:57:30.925Z,6.60
2023-02-16T03:00:31.076Z,6.60
2023-02-16T03:03:04.941Z,6.60
2023-02-16T03:05:34.574Z,6.50
2023-02-16T03:08:14.242Z,6.50
2023-02-16T03:11:22.109Z,6.50
2023-02-16T03:13:59.175Z,6.50
2023-02-16T03:16:34.115Z,6.50
2023-02-16T03:19:21.493Z,6.50
2023-02-16T03:22:07.919Z,6.50
2023-02-16T03:24:53.572Z,6.50
2023-02-16T03:27:50.289Z,6.40
2023-02-16T03:30:19.242Z,6.30
2023-02-16T03:32:48.018Z,6.30
2023-02-16T03:35:16.366Z,6.30
2023-02-16T03:37:44.891Z,6.20
2023-02-16T03:40:29.988Z,6.20
2023-02-16T03:42:58.893Z,6.20
2023-02-16T03:45:26.558Z,6.10
2023-02-16T03:47:53.897Z,6.10
2023-02-16T03:50:21.494Z,6.00
2023-02-16T03:52:49.323Z,6.10
2023-02-16T03:55:16.374Z,6.10
2023-02-16T03:57:43.222Z,6.10
2023-02-16T04:00:12.726Z,6.10
2023-02-16T04:02:39.846Z,6.10
2023-02-16T04:05:08.254Z,6.10
2023-02-16T04:07:36.023Z,6.10
2023-02-16T04:10:04.558Z,6.00
2023-02-16T04:12:38.725Z,6.00
2023-02-16T04:15:11.708Z,6.10
2023-02-16T04:17:38.521Z,6.00
2023-02-16T04:20:06.528Z,6.00
2023-02-16T04:22:33.334Z,5.90
2023-02-16T04:25:01.975Z,5.80
2023-02-16T04:27:31.002Z,5.80
2023-02-16T04:29:59.272Z,5.70
2023-02-16T04:32:27.290Z,5.60
2023-02-16T04:34:54.066Z,5.50
2023-02-16T04:37:23.856Z,5.50
2023-02-16T04:39:50.839Z,5.50
2023-02-16T04:42:18.212Z,5.40
2023-02-16T04:44:45.311Z,5.40
2023-02-16T04:47:12.037Z,5.40
2023-02-16T04:49:41.099Z,5.40
2023-02-16T04:52:10.367Z,5.30
2023-02-16T04:54:37.088Z,5.30
2023-02-16T04:57:03.882Z,5.30
2023-02-16T04:59:30.652Z,5.40
2023-02-16T05:01:58.806Z,5.30
2023-02-16T05:04:25.643Z,5.30
2023-02-16T05:06:53.123Z,5.20
2023-02-16T05:09:19.789Z,5.20
2023-02-16T05:12:07.879Z,5.20
2023-02-16T05:14:41.801Z,5.20
2023-02-16T05:17:10.359Z,5.20
2023-02-16T05:19:39.563Z,5.20
2023-02-16T05:22:06.932Z,5.20
2023-02-16T05:24:34.844Z,5.20
2023-02-16T05:27:06.757Z,5.20
2023-02-16T05:29:34.172Z,5.20
2023-02-16T05:32:04.580Z,5.20
2023-02-16T05:34:31.985Z,5.20
2023-02-16T05:36:58.761Z,5.20
2023-02-16T05:39:25.486Z,5.20
2023-02-16T05:41:52.175Z,5.20
2023-02-16T05:44:18.965Z,5.30
2023-02-16T05:46:49.575Z,5.20
2023-02-16T05:49:17.166Z,5.20
2023-02-16T05:51:45.371Z,5.20
2023-02-16T05:54:17.249Z,5.10
2023-02-16T05:56:49.498Z,5.10
2023-02-16T05:59:19.377Z,5.00
2023-02-16T06:01:50.419Z,5.00
2023-02-16T06:04:20.243Z,5.00
2023-02-16T06:06:47.504Z,5.00
2023-02-16T06:09:14.315Z,5.10
2023-02-16T06:11:43.570Z,5.20
2023-02-16T06:14:13.199Z,5.10
2023-02-16T06:16:41.827Z,5.10
2023-02-16T06:19:09.819Z,5.00
2023-02-16T06:21:39.064Z,5.10
2023-02-16T06:24:07.445Z,5.20
2023-02-16T06:26:34.698Z,5.20
2023-02-16T06:29:02.704Z,5.30
2023-02-16T06:31:30.959Z,5.30
2023-02-16T06:34:00.798Z,5.40
2023-02-16T06:36:28.776Z,5.30
2023-02-16T06:38:57.731Z,5.30
2023-02-16T06:41:37.945Z,5.20
2023-02-16T06:44:17.356Z,5.20
2023-02-16T06:49:34.325Z,5.20
2023-02-16T06:52:04.500Z,5.20
2023-02-16T06:54:31.269Z,5.30
2023-02-16T06:56:59.034Z,5.40
2023-02-16T06:59:25.758Z,5.40
2023-02-16T07:01:52.812Z,5.50
2023-02-16T07:04:19.686Z,5.50
2023-02-16T07:06:47.178Z,5.40
2023-02-16T07:09:14.421Z,5.40
2023-02-16T07:11:43.481Z,5.50
2023-02-16T07:14:12.288Z,5.50
2023-02-16T07:16:47.992Z,5.60
2023-02-16T07:27:39.920Z,5.90
2023-02-16T07:30:12.910Z,5.90
2023-02-16T07:32:43.820Z,6.00
2023-02-16T07:35:18.435Z,6.20
2023-02-16T07:37:47.754Z,6.30
2023-02-16T07:40:14.791Z,6.50
2023-02-16T07:42:51.849Z,6.70
2023-02-16T07:45:22.892Z,6.80
2023-02-16T07:47:51.640Z,6.90
2023-02-16T07:53:08.142Z,6.90
2023-02-16T07:55:46.309Z,7.00
2023-02-16T07:58:28.274Z,7.00
2023-02-16T08:01:09.655Z,7.10
2023-02-16T08:03:36.996Z,7.10
2023-02-16T08:06:06.201Z,7.20
2023-02-16T08:11:15.963Z,7.40
2023-02-16T08:13:47.177Z,7.40
2023-02-16T08:16:19.741Z,7.40
2023-02-16T08:18:46.737Z,7.50
2023-02-16T08:21:21.400Z,7.60
2023-02-16T08:24:08.842Z,7.60
2023-02-16T08:26:41.488Z,7.60
2023-02-16T08:29:18.016Z,7.70
2023-02-16T08:31:49.615Z,7.80
2023-02-16T08:34:18.741Z,7.80
2023-02-16T08:36:50.166Z,7.80
2023-02-16T08:39:20.550Z,7.90
2023-02-16T08:41:50.651Z,7.90
2023-02-16T08:44:19.600Z,8.10
2023-02-16T08:46:48.714Z,8.00
2023-02-16T08:49:18.670Z,8.00
2023-02-16T08:51:48.565Z,8.00
2023-02-16T08:54:32.694Z,8.10
2023-02-16T08:57:07.304Z,8.10
2023-02-16T08:59:36.938Z,8.20
2023-02-16T09:02:16.007Z,8.30
2023-02-16T09:04:44.457Z,8.40
2023-02-16T09:10:02.280Z,8.40
2023-02-16T09:12:32.090Z,8.50
2023-02-16T09:15:02.079Z,8.50
2023-02-16T09:17:29.314Z,8.50
2023-02-16T09:19:56.774Z,8.50
2023-02-16T09:22:29.992Z,8.50
2023-02-16T09:24:56.630Z,8.50
2023-02-16T09:27:25.584Z,8.60
2023-02-16T09:29:53.001Z,8.60
2023-02-16T09:32:20.437Z,8.70
2023-02-16T09:34:50.095Z,8.80
2023-02-16T09:37:29.303Z,8.80
2023-02-16T09:40:04.914Z,8.90
2023-02-16T09:43:27.788Z,9.00
2023-02-16T09:46:00.698Z,9.10
2023-02-16T09:51:36.073Z,9.30
2023-02-16T10:00:55.228Z,9.60
2023-02-16T10:03:45.132Z,9.70
2023-02-16T10:06:55.949Z,9.80
2023-02-16T10:09:27.889Z,9.80
2023-02-16T10:12:26.133Z,9.90
2023-02-16T10:15:29.547Z,10.00
2023-02-16T10:18:03.346Z,10.10
2023-02-16T10:20:56.711Z,10.10
2023-02-16T10:23:51.179Z,10.20
2023-02-16T10:29:27.187Z,10.30
2023-02-16T10:32:02.592Z,10.30
2023-02-16T10:34:53.634Z,10.30
2023-02-16T10:37:57.203Z,10.40
2023-02-16T10:40:41.595Z,10.40
2023-02-16T10:43:27.189Z,10.50
2023-02-16T10:51:47.593Z,10.50
2023-02-16T10:54:37.093Z,10.60
2023-02-16T11:00:23.360Z,10.60
2023-02-16T11:03:04.056Z,10.60
2023-02-16T11:08:24.163Z,10.70
2023-02-16T11:11:18.875Z,10.70
2023-02-16T11:17:41.106Z,10.80
2023-02-16T11:20:13.385Z,10.80
2023-02-16T11:22:41.532Z,10.80
2023-02-16T11:25:25.673Z,10.90
2023-02-16T11:27:59.867Z,10.90
2023-02-16T11:30:38.848Z,10.90
2023-02-16T11:33:31.997Z,11.00
2023-02-16T11:36:11.939Z,11.00
2023-02-16T11:38:47.522Z,11.10
2023-02-16T11:41:58.109Z,11.10
2023-02-16T11:44:32.602Z,11.20
2023-02-16T11:47:30.347Z,11.20
2023-02-16T11:50:38.364Z,11.20
2023-02-16T11:53:25.099Z,11.20
2023-02-16T11:56:41.035Z,11.30
2023-02-16T12:02:30.142Z,11.40
2023-02-16T12:05:44.339Z,11.40
2023-02-16T12:08:26.059Z,11.40
2023-02-16T12:11:19.056Z,11.40
2023-02-16T12:14:02.766Z,11.40
2023-02-16T12:16:52.720Z,11.40
2023-02-16T12:19:51.120Z,11.40
2023-02-16T12:22:48.378Z,11.50
2023-02-16T12:28:46.347Z,11.50
2023-02-16T12:31:42.978Z,11.50
2023-02-16T12:34:35.129Z,11.60
2023-02-16T12:37:24.568Z,11.60
2023-02-16T12:40:15.623Z,11.60
2023-02-16T12:43:10.642Z,11.60
2023-02-16T12:45:45.679Z,11.70
2023-02-16T12:48:52.336Z,11.70
2023-02-16T12:54:46.911Z,11.70
2023-02-16T13:07:40.109Z,11.90
2023-02-16T13:10:49.103Z,11.90
2023-02-16T13:16:51.727Z,12.10
2023-02-16T13:19:36.740Z,12.10
2023-02-16T13:39:22.546Z,12.00
2023-02-16T13:44:53.455Z,12.00
2023-02-16T13:47:42.116Z,12.00
2023-02-16T13:56:39.737Z,12.00
2023-02-16T14:07:59.060Z,12.10
2023-02-16T14:11:05.605Z,12.10
2023-02-16T14:13:48.148Z,12.10
2023-02-16T14:19:32.962Z,12.10
2023-02-16T14:22:18.647Z,12.10
2023-02-16T14:24:54.787Z,12.10
2023-02-16T14:28:08.662Z,12.10
2023-02-16T14:33:59.801Z,12.20
2023-02-16T14:42:16.123Z,12.20
2023-02-16T14:45:36.485Z,12.30
2023-02-16T14:55:23.102Z,12.40
2023-02-16T14:58:02.420Z,12.40
2023-02-16T15:00:53.910Z,12.40
2023-02-16T15:06:37.020Z,12.40
2023-02-16T15:09:22.231Z,12.40
2023-02-16T15:12:23.538Z,12.30
2023-02-16T15:15:02.723Z,12.30
2023-02-16T15:17:40.474Z,12.30
2023-02-16T15:20:21.391Z,12.20
2023-02-16T15:23:01.441Z,12.20
2023-02-16T15:25:55.735Z,12.10
2023-02-16T15:28:35.710Z,12.10
2023-02-16T15:37:49.404Z,12.00
2023-02-16T15:40:26.858Z,12.00
2023-02-16T15:48:51.390Z,11.80
2023-02-16T15:51:41.817Z,11.80
2023-02-16T15:54:45.295Z,11.80
2023-02-16T16:00:36.572Z,11.80
2023-02-16T16:03:21.720Z,11.80
2023-02-16T16:08:50.853Z,11.70
2023-02-16T16:11:33.597Z,11.70
2023-02-16T16:14:04.658Z,11.60
2023-02-16T16:16:39.583Z,11.70
2023-02-16T16:19:35.181Z,11.60
2023-02-16T16:22:25.941Z,11.60
2023-02-16T16:24:53.049Z,11.50
2023-02-16T16:27:33.482Z,11.50
2023-02-16T16:30:34.793Z,11.50
2023-02-16T16:36:15.663Z,11.30
2023-02-16T16:47:51.777Z,11.20
2023-02-16T16:50:26.359Z,11.10
2023-02-16T16:53:03.984Z,11.10
2023-02-16T16:56:03.534Z,11.10
2023-02-16T17:01:17.903Z,11.20
2023-02-16T17:03:44.637Z,11.20
2023-02-16T17:06:14.402Z,11.20
2023-02-16T17:08:42.015Z,11.20
2023-02-16T17:11:25.843Z,11.30
2023-02-16T17:13:54.794Z,11.30
2023-02-16T17:16:36.620Z,11.40
2023-02-16T17:19:03.677Z,11.40
2023-02-16T17:21:32.489Z,11.50
2023-02-16T17:23:59.182Z,11.50
2023-02-16T17:26:27.417Z,11.60
2023-02-16T17:28:54.437Z,11.60
2023-02-16T17:31:22.551Z,11.60
2023-02-16T17:33:56.231Z,11.60
2023-02-16T17:36:24.909Z,11.60
2023-02-16T17:38:51.709Z,11.50
2023-02-16T17:41:25.862Z,11.40
2023-02-16T17:43:56.310Z,11.30
2023-02-16T17:46:23.482Z,11.30
2023-02-16T17:48:53.660Z,11.30
2023-02-16T17:51:23.895Z,11.20
2023-02-16T17:53:51.487Z,11.20
2023-02-16T17:56:21.738Z,11.20
2023-02-16T17:58:49.638Z,11.10
2023-02-16T18:01:18.495Z,11.00
2023-02-16T18:03:45.400Z,11.00
2023-02-16T18:06:17.248Z,10.90
2023-02-16T18:08:44.918Z,10.90
2023-02-16T18:11:14.636Z,10.80
2023-02-16T18:13:41.459Z,10.80
2023-02-16T18:16:12.139Z,10.70
2023-02-16T18:18:39.426Z,10.70
2023-02-16T18:21:07.752Z,10.70
2023-02-16T18:23:35.086Z,10.70
2023-02-16T18:26:02.871Z,10.70
2023-02-16T18:28:31.814Z,10.70
2023-02-16T18:30:59.611Z,10.70
2023-02-16T18:33:26.654Z,10.60
2023-02-16T18:35:57.835Z,10.60
2023-02-16T18:38:27.649Z,10.60
2023-02-16T18:40:57.269Z,10.60
2023-02-16T18:43:31.328Z,10.60
2023-02-16T18:45:59.683Z,10.60
2023-02-16T18:48:29.124Z,10.60
2023-02-16T18:51:18.092Z,10.60
2023-02-16T18:53:52.309Z,10.60
2023-02-16T18:56:21.527Z,10.60
2023-02-16T18:58:54.524Z,10.60
2023-02-16T19:01:28.288Z,10.60
2023-02-16T19:03:57.581Z,10.70
2023-02-16T19:06:26.769Z,10.70
2023-02-16T19:08:56.021Z,10.70
2023-02-16T19:11:28.789Z,10.70
2023-02-16T19:13:56.936Z,10.70
2023-02-16T19:16:27.894Z,10.80
2023-02-16T19:19:01.133Z,10.80
2023-02-16T19:21:31.749Z,10.80
2023-02-16T19:24:01.237Z,10.90
2023-02-16T19:26:29.032Z,10.90
2023-02-16T19:28:57.053Z,11.00
2023-02-16T19:31:31.737Z,11.00
2023-02-16T19:34:09.471Z,11.00
2023-02-16T19:39:18.276Z,11.20
2023-02-16T19:41:46.005Z,11.20
2023-02-16T19:44:16.915Z,11.30
2023-02-16T19:46:45.822Z,11.30
2023-02-16T19:49:17.856Z,11.30
2023-02-16T19:51:49.122Z,11.30
2023-02-16T19:54:19.752Z,11.40
2023-02-16T19:56:47.639Z,11.30
2023-02-16T19:59:20.500Z,11.30
2023-02-16T20:01:49.408Z,11.30
2023-02-16T20:04:20.439Z,11.30
2023-02-16T20:06:50.348Z,11.40
2023-02-16T20:09:18.799Z,11.40
2023-02-16T20:11:50.896Z,11.40
2023-02-16T20:14:19.241Z,11.40
2023-02-16T20:16:54.587Z,11.50
2023-02-16T20:19:23.544Z,11.30
2023-02-16T20:21:52.768Z,11.40
2023-02-16T20:27:15.480Z,11.50
2023-02-16T20:29:44.986Z,11.50
2023-02-16T20:32:12.163Z,11.50
2023-02-16T20:34:41.211Z,11.60
2023-02-16T20:37:10.557Z,11.60
2023-02-16T20:39:37.684Z,11.60
2023-02-16T20:42:05.211Z,11.70
2023-02-16T20:44:40.529Z,11.70
2023-02-16T20:47:11.745Z,11.70
2023-02-16T20:49:40.888Z,11.80
2023-02-16T20:52:11.881Z,11.80
2023-02-16T20:54:43.705Z,11.80
2023-02-16T20:57:26.473Z,11.80
2023-02-16T20:59:56.162Z,11.80
2023-02-16T21:02:30.525Z,11.70
2023-02-16T21:04:57.587Z,11.70
2023-02-16T21:07:26.599Z,11.70
2023-02-16T21:10:02.218Z,11.70
2023-02-16T21:12:28.910Z,11.60
2023-02-16T21:14:55.753Z,11.60
2023-02-16T21:17:23.512Z,11.50
2023-02-16T21:19:50.214Z,11.60
2023-02-16T21:22:17.041Z,11.60
2023-02-16T21:24:44.894Z,11.60
2023-02-16T21:27:12.159Z,11.60
2023-02-16T21:29:39.765Z,11.60
2023-02-16T21:32:07.654Z,11.60
2023-02-16T21:34:35.012Z,11.60
2023-02-16T21:37:01.990Z,11.60
2023-02-16T21:39:47.489Z,11.60
2023-02-16T21:42:14.425Z,11.50
2023-02-16T21:44:49.982Z,11.60
2023-02-16T21:47:36.400Z,11.60
2023-02-16T21:50:03.060Z,11.70
2023-02-16T21:52:29.795Z,11.70
2023-02-16T21:55:27.187Z,11.70
2023-02-16T21:57:57.505Z,11.70
2023-02-16T22:00:26.668Z,11.70
2023-02-16T22:02:54.923Z,11.70
2023-02-16T22:05:21.650Z,11.70
2023-02-16T22:07:50.242Z,11.70
2023-02-16T22:10:17.845Z,11.70
2023-02-16T22:12:44.572Z,11.60
2023-02-16T22:15:11.274Z,11.60
2023-02-16T22:17:38.058Z,11.60
2023-02-16T22:20:06.139Z,11.60
2023-02-16T22:22:33.902Z,11.60
2023-02-16T22:25:02.281Z,11.70
2023-02-16T22:27:29.185Z,11.70
2023-02-16T22:29:55.944Z,11.70
2023-02-16T22:32:22.906Z,11.80
2023-02-16T22:34:51.959Z,11.70
2023-02-16T22:37:20.410Z,11.80
2023-02-16T22:39:49.124Z,11.80
2023-02-16T22:42:16.028Z,11.70
2023-02-16T22:44:42.733Z,11.70
2023-02-16T22:47:09.695Z,11.80
2023-02-16T22:49:37.349Z,11.80
2023-02-16T22:52:04.125Z,11.80
2023-02-16T22:54:31.209Z,11.90
2023-02-16T22:56:58.183Z,11.80
2023-02-16T22:59:26.327Z,11.90
2023-02-16T23:01:53.113Z,11.90
2023-02-16T23:04:19.923Z,11.90
2023-02-16T23:06:46.922Z,11.90
2023-02-16T23:09:20.023Z,11.90
2023-02-16T23:11:48.546Z,11.90
2023-02-16T23:14:20.879Z,12.00
2023-02-16T23:16:51.967Z,11.90
2023-02-16T23:19:24.544Z,12.00
2023-02-16T23:22:02.114Z,12.00
2023-02-16T23:24:28.940Z,12.00
2023-02-16T23:27:00.301Z,12.00
2023-02-16T23:29:26.997Z,12.00
2023-02-16T23:31:57.488Z,12.00
2023-02-16T23:34:24.542Z,12.10
2023-02-16T23:36:52.588Z,12.10
2023-02-16T23:39:19.724Z,12.10
2023-02-16T23:41:46.761Z,12.10
2023-02-16T23:44:14.476Z,12.20
2023-02-16T23:46:41.716Z,12.20
2023-02-16T23:49:08.826Z,12.20
2023-02-16T23:51:35.969Z,12.20
2023-02-16T23:54:03.670Z,12.20
2023-02-16T23:56:30.417Z,12.20
2023-02-16T23:58:59.525Z,12.20
